Time;durP1;ratioP1;P1;durP2;ratioP2;P2;SDS_P1;SDS_P2;PMS_P1;PMS_P2;Temp;Humidity;BMP_temperature;BMP_pressure;BME280_temperature;BME280_humidity;BME280_pressure;Samples;Min_cycle;Max_cycle;Signal;HPM_P1;HPM_P2
2021/08/24 00:02:34;;;;;;;0.08;0.08;;;12.60;99.90;;;;;;5093774;28;20528;-87
2021/08/24 00:05:24;;;;;;;0.10;0.10;;;12.60;99.90;;;;;;5096223;28;20410;-85
2021/08/24 00:08:11;;;;;;;0.00;0.00;;;12.50;99.90;;;;;;5093822;28;20054;-85
2021/08/24 00:11:00;;;;;;;0.00;0.00;;;12.50;99.90;;;;;;5090345;27;20039;-86
2021/08/24 00:13:47;;;;;;;0.00;0.00;;;12.40;99.90;;;;;;5094204;27;20048;-85
2021/08/24 00:16:34;;;;;;;0.00;0.00;;;12.40;99.90;;;;;;5097950;28;20069;-85
2021/08/24 00:19:21;;;;;;;0.10;0.10;;;12.30;99.90;;;;;;5105313;27;20040;-86
2021/08/24 00:22:09;;;;;;;0.00;0.00;;;12.30;99.90;;;;;;5096839;28;20097;-85
2021/08/24 00:24:56;;;;;;;0.00;0.00;;;12.40;99.90;;;;;;5084637;28;20414;-85
2021/08/24 00:27:44;;;;;;;0.08;0.08;;;12.30;99.90;;;;;;5096760;27;20040;-85
2021/08/24 00:30:32;;;;;;;0.00;0.00;;;12.20;99.90;;;;;;5107480;28;20080;-86
2021/08/24 00:33:19;;;;;;;0.00;0.00;;;12.20;99.90;;;;;;5093783;28;20050;-86
2021/08/24 00:36:06;;;;;;;0.00;0.00;;;12.30;99.90;;;;;;5095163;28;20043;-87
2021/08/24 00:38:53;;;;;;;0.00;0.00;;;12.30;99.90;;;;;;5096203;28;20172;-86
2021/08/24 00:41:40;;;;;;;0.00;0.00;;;12.30;99.90;;;;;;5097008;27;20095;-85
2021/08/24 00:44:29;;;;;;;0.03;0.03;;;12.20;99.90;;;;;;5105980;28;20039;-86
2021/08/24 00:47:19;;;;;;;0.10;0.10;;;12.10;99.90;;;;;;5092906;28;20088;-86
2021/08/24 00:50:14;;;;;;;;;;;12.00;99.90;;;;;;5094311;28;20031;-87
2021/08/24 00:53:02;;;;;;;0.10;0.10;;;12.00;99.90;;;;;;5094412;28;19979;-86
2021/08/24 00:55:52;;;;;;;0.10;0.10;;;12.00;99.90;;;;;;5106753;27;20044;-85
2021/08/24 00:58:39;;;;;;;0.00;0.00;;;11.90;99.90;;;;;;5088624;28;20122;-85
2021/08/24 01:01:28;;;;;;;0.00;0.00;;;11.90;99.90;;;;;;5096446;28;20070;-85
2021/08/24 01:04:19;;;;;;;0.00;0.00;;;11.80;99.90;;;;;;5097543;28;20048;-86
2021/08/24 01:07:12;;;;;;;0.00;0.00;;;11.70;99.90;;;;;;5094452;28;20070;-85
2021/08/24 01:10:08;;;;;;;0.00;0.00;;;11.80;99.90;;;;;;5096254;28;20042;-85
2021/08/24 01:13:07;;;;;;;0.08;0.08;;;11.80;99.90;;;;;;5085145;28;20036;-86
2021/08/24 01:16:00;;;;;;;0.00;0.00;;;11.80;99.90;;;;;;5090281;28;20043;-86
2021/08/24 01:18:59;;;;;;;0.00;0.00;;;11.80;99.90;;;;;;5087754;28;20042;-85
2021/08/24 01:22:14;;;;;;;0.00;0.00;;;11.70;99.90;;;;;;5100598;28;20042;-85
2021/08/24 01:25:05;;;;;;;0.00;0.00;;;11.70;99.90;;;;;;5092295;28;20601;-85
2021/08/24 01:28:00;;;;;;;0.10;0.10;;;11.70;99.90;;;;;;5105961;27;20054;-85
2021/08/24 01:31:10;;;;;;;0.00;0.00;;;11.60;99.90;;;;;;5092408;28;20434;-85
2021/08/24 01:34:05;;;;;;;;;;;11.60;99.90;;;;;;5108575;28;20050;-86
2021/08/24 01:37:01;;;;;;;0.00;0.00;;;11.50;99.90;;;;;;5088111;28;19928;-85
2021/08/24 01:39:54;;;;;;;0.10;0.10;;;11.50;99.90;;;;;;5098978;28;20051;-86
2021/08/24 01:42:42;;;;;;;0.10;0.10;;;11.50;99.90;;;;;;5095554;28;20173;-85
2021/08/24 01:45:38;;;;;;;0.05;0.05;;;11.50;99.90;;;;;;5098627;28;20415;-85
2021/08/24 01:48:32;;;;;;;0.00;0.00;;;11.50;99.90;;;;;;5097540;28;20094;-86
2021/08/24 01:51:23;;;;;;;0.00;0.00;;;11.50;99.90;;;;;;5106552;28;20584;-85
2021/08/24 01:54:16;;;;;;;0.00;0.00;;;11.50;99.90;;;;;;5095891;28;20414;-85
2021/08/24 01:57:10;;;;;;;0.00;0.00;;;11.40;99.90;;;;;;5092193;28;20056;-86
2021/08/24 02:00:01;;;;;;;0.00;0.00;;;11.50;99.90;;;;;;5093525;28;20127;-87
2021/08/24 02:02:51;;;;;;;0.10;0.10;;;11.50;99.90;;;;;;5112448;28;20044;-85
2021/08/24 02:05:43;;;;;;;0.00;0.00;;;11.50;99.90;;;;;;5102649;28;20036;-86
2021/08/24 02:08:34;;;;;;;0.10;0.10;;;11.40;99.90;;;;;;5103470;28;20054;-87
2021/08/24 02:11:26;;;;;;;0.00;0.00;;;11.40;99.90;;;;;;5103648;28;20126;-86
2021/08/24 02:14:15;;;;;;;0.00;0.00;;;11.50;99.90;;;;;;5099769;28;20050;-84
2021/08/24 02:17:05;;;;;;;0.00;0.00;;;11.40;99.90;;;;;;5100554;28;20161;-86
2021/08/24 02:19:54;;;;;;;;;;;11.40;99.90;;;;;;5093985;28;20127;-86
2021/08/24 02:22:43;;;;;;;0.00;0.00;;;11.40;99.90;;;;;;5101212;27;19943;-86
2021/08/24 02:25:34;;;;;;;0.10;0.10;;;11.30;99.90;;;;;;5114771;28;20044;-86
2021/08/24 02:28:28;;;;;;;0.10;0.10;;;11.20;99.90;;;;;;5100032;28;20039;-87
2021/08/24 02:31:21;;;;;;;0.00;0.00;;;11.20;99.90;;;;;;5111336;28;20404;-85
2021/08/24 02:34:16;;;;;;;0.00;0.00;;;11.20;99.90;;;;;;5102492;27;20050;-85
2021/08/24 02:37:11;;;;;;;0.10;0.10;;;11.20;99.90;;;;;;5099052;28;20169;-85
2021/08/24 02:40:07;;;;;;;0.10;0.10;;;11.20;99.90;;;;;;5108448;28;20053;-84
2021/08/24 02:43:03;;;;;;;0.03;0.03;;;11.20;99.90;;;;;;5105685;28;20119;-84
2021/08/24 02:46:01;;;;;;;0.10;0.10;;;11.20;99.90;;;;;;5106831;27;20036;-85
2021/08/24 02:48:54;;;;;;;0.10;0.10;;;11.10;99.90;;;;;;5103039;28;20122;-84
2021/08/24 02:51:42;;;;;;;0.00;0.00;;;11.10;99.90;;;;;;5103952;28;20032;-84
2021/08/24 02:54:31;;;;;;;0.00;0.00;;;11.00;99.90;;;;;;5091437;28;20618;-84
2021/08/24 02:57:18;;;;;;;0.00;0.00;;;11.00;99.90;;;;;;5085013;28;20049;-84
2021/08/24 03:00:07;;;;;;;0.10;0.10;;;11.10;99.90;;;;;;5092928;28;20112;-85
2021/08/24 03:02:55;;;;;;;0.00;0.00;;;11.10;99.90;;;;;;5089746;28;20172;-85
2021/08/24 03:05:43;;;;;;;0.00;0.00;;;11.20;99.90;;;;;;5089890;28;20051;-84
2021/08/24 03:08:30;;;;;;;0.03;0.03;;;11.30;99.90;;;;;;5092980;27;20456;-85
2021/08/24 03:11:22;;;;;;;0.00;0.00;;;11.40;99.90;;;;;;5090459;28;20067;-85
2021/08/24 03:14:14;;;;;;;0.00;0.00;;;11.40;99.90;;;;;;5094111;28;20649;-84
2021/08/24 03:17:07;;;;;;;0.00;0.00;;;11.50;99.90;;;;;;5084749;28;20043;-84
2021/08/24 03:19:59;;;;;;;0.00;0.00;;;11.60;99.90;;;;;;5086608;28;20176;-84
2021/08/24 03:22:48;;;;;;;0.00;0.00;;;11.60;99.90;;;;;;5088677;28;20054;-84
2021/08/24 03:25:36;;;;;;;0.10;0.10;;;11.70;99.90;;;;;;5105974;28;20499;-85
2021/08/24 03:28:25;;;;;;;0.00;0.00;;;11.70;99.90;;;;;;5103943;28;20639;-86
2021/08/24 03:31:16;;;;;;;0.00;0.00;;;11.70;99.90;;;;;;5096229;28;20059;-86
2021/08/24 03:34:03;;;;;;;0.00;0.00;;;11.60;99.90;;;;;;5111672;28;20047;-86
2021/08/24 03:36:52;;;;;;;0.00;0.00;;;11.50;99.90;;;;;;5093791;28;20492;-84
2021/08/24 03:39:39;;;;;;;0.10;0.10;;;11.50;99.90;;;;;;5093918;27;20043;-84
2021/08/24 03:42:26;;;;;;;0.08;0.08;;;11.40;99.90;;;;;;5093853;28;20048;-84
2021/08/24 03:45:13;;;;;;;0.00;0.00;;;11.30;99.90;;;;;;5089687;28;20072;-85
2021/08/24 03:48:00;;;;;;;0.00;0.00;;;11.20;99.90;;;;;;5089858;28;20134;-85
2021/08/24 03:50:47;;;;;;;0.00;0.00;;;11.20;99.90;;;;;;5097288;28;20055;-84
2021/08/24 03:53:36;;;;;;;0.00;0.00;;;11.30;99.90;;;;;;5102859;27;20048;-84
2021/08/24 03:56:23;;;;;;;0.00;0.00;;;11.20;99.90;;;;;;5093944;28;20049;-86
2021/08/24 03:59:10;;;;;;;0.10;0.10;;;11.10;99.90;;;;;;5110408;27;20329;-86
2021/08/24 04:01:57;;;;;;;0.10;0.10;;;11.00;99.90;;;;;;5098076;28;20040;-86
2021/08/24 04:04:45;;;;;;;0.10;0.10;;;10.90;99.90;;;;;;5108407;28;20040;-85
2021/08/24 04:07:32;;;;;;;0.00;0.00;;;10.90;99.90;;;;;;5109535;27;20044;-86
2021/08/24 04:10:21;;;;;;;0.10;0.10;;;11.00;99.90;;;;;;5092296;28;20050;-85
2021/08/24 04:13:08;;;;;;;0.00;0.00;;;10.90;99.90;;;;;;5095940;28;20281;-86
2021/08/24 04:15:55;;;;;;;0.00;0.00;;;10.90;99.90;;;;;;5092386;28;20036;-87
2021/08/24 04:21:20;;;;;;;0.00;0.00;;;10.80;99.90;;;;;;5104322;28;20044;-84
2021/08/24 04:24:08;;;;;;;0.10;0.10;;;11.90;99.90;;;;;;5102307;28;20042;-84
2021/08/24 04:26:56;;;;;;;0.10;0.10;;;10.80;99.90;;;;;;5100638;28;20059;-84
2021/08/24 04:29:43;;;;;;;0.00;0.00;;;10.70;99.90;;;;;;5114368;28;20197;-86
2021/08/24 04:32:31;;;;;;;0.10;0.10;;;10.70;99.90;;;;;;5120250;28;20040;-82
2021/08/24 04:35:18;;;;;;;0.08;0.08;;;10.70;99.90;;;;;;5112307;27;20039;-84
2021/08/24 04:38:06;;;;;;;0.10;0.10;;;10.90;99.90;;;;;;5121725;28;20089;-84
2021/08/24 04:40:53;;;;;;;0.00;0.00;;;10.80;99.90;;;;;;5118119;28;20115;-81
2021/08/24 04:43:42;;;;;;;0.10;0.10;;;10.80;99.90;;;;;;5115513;28;20042;-84
2021/08/24 04:46:29;;;;;;;0.10;0.10;;;10.80;99.90;;;;;;5098181;28;20057;-79
2021/08/24 04:49:16;;;;;;;0.10;0.10;;;10.70;99.90;;;;;;5111991;28;20138;-83
2021/08/24 04:52:04;;;;;;;0.00;0.00;;;10.70;99.90;;;;;;5117501;28;20043;-82
2021/08/24 04:54:51;;;;;;;0.10;0.10;;;10.70;99.90;;;;;;5121014;28;20054;-82
2021/08/24 04:57:38;;;;;;;0.10;0.10;;;10.70;99.90;;;;;;5121089;27;20088;-83
2021/08/24 05:00:27;;;;;;;0.10;0.10;;;10.70;99.90;;;;;;5116543;28;20115;-84
2021/08/24 05:03:14;;;;;;;0.00;0.00;;;10.60;99.90;;;;;;5115924;28;20107;-82
2021/08/24 05:06:01;;;;;;;0.10;0.10;;;10.50;99.90;;;;;;5124147;28;20106;-81
2021/08/24 05:08:49;;;;;;;0.00;0.00;;;10.60;99.90;;;;;;5119931;28;20047;-83
2021/08/24 05:11:36;;;;;;;0.00;0.00;;;10.50;99.90;;;;;;5120359;27;20039;-84
2021/08/24 05:14:24;;;;;;;0.00;0.00;;;10.60;99.90;;;;;;5118962;28;20107;-83
2021/08/24 05:17:12;;;;;;;0.00;0.00;;;10.50;99.90;;;;;;5123925;27;20049;-84
2021/08/24 05:19:59;;;;;;;0.10;0.10;;;10.60;99.90;;;;;;5117136;28;20052;-83
2021/08/24 05:22:47;;;;;;;0.10;0.10;;;10.70;99.90;;;;;;5114173;28;20044;-83
2021/08/24 05:25:34;;;;;;;0.10;0.10;;;10.80;99.90;;;;;;5115044;28;20076;-83
2021/08/24 05:28:24;;;;;;;0.00;0.00;;;10.90;99.90;;;;;;5116199;28;20264;-83
2021/08/24 05:31:11;;;;;;;0.10;0.10;;;10.90;99.90;;;;;;5120414;28;20122;-83
2021/08/24 05:34:04;;;;;;;0.10;0.10;;;10.90;99.90;;;;;;5115439;28;20043;-83
2021/08/24 05:36:51;;;;;;;0.00;0.00;;;11.00;99.90;;;;;;5118307;28;20071;-84
2021/08/24 05:39:41;;;;;;;0.10;0.10;;;11.10;99.90;;;;;;5119394;28;20052;-85
2021/08/24 05:42:28;;;;;;;0.10;0.10;;;11.20;99.90;;;;;;5122832;28;20038;-83
2021/08/24 05:45:15;;;;;;;0.00;0.00;;;11.80;99.90;;;;;;5113824;28;20109;-85
2021/08/24 05:48:03;;;;;;;0.00;0.00;;;11.40;99.90;;;;;;5121173;28;20047;-82
2021/08/24 05:50:52;;;;;;;0.10;0.10;;;11.60;99.90;;;;;;5123416;28;20134;-84
2021/08/24 05:53:39;;;;;;;0.10;0.10;;;11.60;99.90;;;;;;5123107;28;20039;-83
2021/08/24 05:56:28;;;;;;;0.00;0.00;;;11.70;99.90;;;;;;5117934;28;20044;-83
2021/08/24 05:59:15;;;;;;;0.10;0.10;;;11.70;99.90;;;;;;5118206;28;20070;-84
2021/08/24 06:02:03;;;;;;;0.00;0.00;;;12.70;99.90;;;;;;5124151;28;20039;-82
2021/08/24 06:04:52;;;;;;;0.00;0.00;;;11.80;99.90;;;;;;5124071;28;20084;-84
2021/08/24 06:07:41;;;;;;;0.10;0.10;;;11.90;99.90;;;;;;5116002;28;20103;-84
2021/08/24 06:10:28;;;;;;;0.10;0.10;;;12.00;99.90;;;;;;5116818;28;20103;-84
2021/08/24 06:13:15;;;;;;;0.00;0.00;;;13.00;99.90;;;;;;5116472;28;20120;-81
2021/08/24 06:16:02;;;;;;;0.10;0.10;;;12.10;99.90;;;;;;5111869;28;20111;-81
2021/08/24 06:18:50;;;;;;;0.10;0.10;;;12.10;99.90;;;;;;5113978;28;20051;-84
2021/08/24 06:21:38;;;;;;;0.00;0.00;;;12.20;99.90;;;;;;5094185;28;20048;-83
2021/08/24 06:24:27;;;;;;;0.00;0.00;;;12.20;99.90;;;;;;5105337;28;20131;-83
2021/08/24 06:27:14;;;;;;;0.10;0.10;;;12.30;99.90;;;;;;5110281;28;20051;-85
2021/08/24 06:30:02;;;;;;;0.00;0.00;;;12.30;99.90;;;;;;5112010;28;20142;-83
2021/08/24 06:32:52;;;;;;;0.00;0.00;;;12.40;99.90;;;;;;5114900;28;20040;-83
2021/08/24 06:35:40;;;;;;;0.00;0.00;;;12.50;99.90;;;;;;5112937;28;20068;-84
2021/08/24 06:38:29;;;;;;;0.00;0.00;;;12.50;99.90;;;;;;5127747;28;20488;-82
2021/08/24 06:41:19;;;;;;;0.00;0.00;;;12.60;99.90;;;;;;5114383;28;20040;-83
2021/08/24 06:44:07;;;;;;;0.10;0.10;;;12.70;99.90;;;;;;5116886;28;20043;-83
2021/08/24 06:46:54;;;;;;;0.00;0.00;;;12.70;99.90;;;;;;5109491;28;20073;-84
2021/08/24 06:49:41;;;;;;;0.00;0.00;;;12.80;99.90;;;;;;5116724;28;20043;-83
2021/08/24 06:52:29;;;;;;;0.00;0.00;;;12.90;99.90;;;;;;5117413;27;20071;-83
2021/08/24 06:55:16;;;;;;;0.00;0.00;;;13.00;99.90;;;;;;5115227;28;20057;-84
2021/08/24 06:58:07;;;;;;;0.00;0.00;;;13.10;99.90;;;;;;5111957;28;20047;-84
2021/08/24 07:00:54;;;;;;;0.00;0.00;;;13.10;99.90;;;;;;5116199;28;20036;-83
2021/08/24 07:03:42;;;;;;;0.00;0.00;;;13.20;99.90;;;;;;5103649;28;20038;-83
2021/08/24 07:06:29;;;;;;;0.10;0.10;;;13.30;99.90;;;;;;5117449;28;20087;-82
2021/08/24 07:09:16;;;;;;;0.10;0.10;;;13.40;99.90;;;;;;5099292;27;20118;-83
2021/08/24 07:12:04;;;;;;;0.00;0.00;;;13.50;99.90;;;;;;5110171;28;20133;-83
2021/08/24 07:14:52;;;;;;;0.00;0.00;;;13.50;99.90;;;;;;5108383;28;20064;-84
2021/08/24 07:17:39;;;;;;;0.00;0.00;;;13.60;99.90;;;;;;5117188;28;20596;-84
2021/08/24 07:20:27;;;;;;;0.00;0.00;;;13.70;99.90;;;;;;5117749;27;20054;-84
2021/08/24 07:23:14;;;;;;;0.00;0.00;;;13.70;99.90;;;;;;5114134;27;20059;-82
2021/08/24 07:26:01;;;;;;;0.00;0.00;;;13.90;99.90;;;;;;5117933;28;20047;-83
2021/08/24 07:28:48;;;;;;;0.00;0.00;;;14.00;99.90;;;;;;5110546;28;20046;-83
2021/08/24 07:31:37;;;;;;;0.10;0.10;;;14.00;99.90;;;;;;5109671;27;20494;-84
2021/08/24 07:34:25;;;;;;;0.00;0.00;;;14.10;99.90;;;;;;5126315;27;20400;-82
2021/08/24 07:37:12;;;;;;;0.00;0.00;;;14.10;99.90;;;;;;5114330;28;20562;-83
2021/08/24 07:39:59;;;;;;;0.00;0.00;;;14.30;99.90;;;;;;5113386;27;20050;-77
2021/08/24 07:42:46;;;;;;;0.00;0.00;;;14.30;99.90;;;;;;5110315;28;20182;-84
2021/08/24 07:45:34;;;;;;;0.00;0.00;;;14.40;99.90;;;;;;5111329;27;20130;-82
2021/08/24 07:48:24;;;;;;;0.00;0.00;;;14.50;99.90;;;;;;5114732;27;20043;-84
2021/08/24 07:51:11;;;;;;;0.00;0.00;;;14.60;99.90;;;;;;5108864;27;20048;-83
2021/08/24 07:54:00;;;;;;;0.00;0.00;;;14.60;99.90;;;;;;5106576;28;20046;-83
2021/08/24 07:56:48;;;;;;;0.00;0.00;;;14.80;99.90;;;;;;5103485;27;20050;-83
2021/08/24 07:59:35;;;;;;;0.00;0.00;;;14.80;99.90;;;;;;5107483;28;20091;-84
2021/08/24 08:02:23;;;;;;;0.00;0.00;;;;;;;;;;5113320;28;20445;-80
2021/08/24 08:05:12;;;;;;;0.00;0.00;;;14.90;99.90;;;;;;5109776;27;20039;-84
2021/08/24 08:08:00;;;;;;;0.00;0.00;;;15.00;99.90;;;;;;5124664;27;20103;-83
2021/08/24 08:10:47;;;;;;;0.00;0.00;;;15.10;99.90;;;;;;5106989;27;20049;-83
2021/08/24 08:13:34;;;;;;;0.00;0.00;;;15.30;99.90;;;;;;5098545;28;20046;-83
2021/08/24 08:16:21;;;;;;;0.00;0.00;;;15.40;99.90;;;;;;5115525;27;20516;-84
2021/08/24 08:19:09;;;;;;;0.00;0.00;;;15.70;99.90;;;;;;5103813;28;20070;-82
2021/08/24 08:21:57;;;;;;;0.00;0.00;;;15.80;99.90;;;;;;5110672;28;20043;-84
2021/08/24 08:24:44;;;;;;;0.00;0.00;;;16.00;99.90;;;;;;5122987;27;20103;-84
2021/08/24 08:27:31;;;;;;;0.00;0.00;;;16.30;99.90;;;;;;5110494;28;20130;-84
2021/08/24 08:30:19;;;;;;;0.00;0.00;;;16.40;99.90;;;;;;5108838;28;20559;-84
2021/08/24 08:33:06;;;;;;;0.00;0.00;;;16.70;99.90;;;;;;5107424;28;20126;-83
2021/08/24 08:35:53;;;;;;;0.00;0.00;;;16.70;99.90;;;;;;5119754;27;20047;-84
2021/08/24 08:38:42;;;;;;;0.00;0.00;;;16.80;99.90;;;;;;5100018;28;20558;-82
2021/08/24 08:41:34;;;;;;;0.00;0.00;;;17.00;99.90;;;;;;5108250;27;20058;-85
2021/08/24 08:44:27;;;;;;;0.00;0.00;;;17.20;99.90;;;;;;5111067;28;20092;-83
2021/08/24 08:47:27;;;;;;;0.00;0.00;;;17.20;99.90;;;;;;5129146;27;20049;-83
2021/08/24 08:50:22;;;;;;;0.00;0.00;;;17.30;99.90;;;;;;5127771;27;20049;-84
2021/08/24 08:53:18;;;;;;;0.00;0.00;;;17.40;99.90;;;;;;5104273;27;20044;-84
2021/08/24 08:56:16;;;;;;;0.00;0.00;;;18.50;99.90;;;;;;5115807;27;20069;-82
2021/08/24 08:59:11;;;;;;;0.00;0.00;;;17.20;99.90;;;;;;5083199;28;20052;-84
2021/08/24 09:02:03;;;;;;;0.00;0.00;;;17.30;99.90;;;;;;5103571;28;20560;-85
2021/08/24 09:04:51;;;;;;;0.00;0.00;;;17.50;99.90;;;;;;5107953;28;20043;-83
2021/08/24 09:07:43;;;;;;;0.00;0.00;;;17.50;99.90;;;;;;5109080;28;20044;-84
2021/08/24 09:10:34;;;;;;;0.00;0.00;;;17.60;99.90;;;;;;5115936;27;20127;-83
2021/08/24 09:13:29;;;;;;;0.00;0.00;;;17.70;99.90;;;;;;5101703;27;20057;-83
2021/08/24 09:16:26;;;;;;;0.00;0.00;;;17.60;99.90;;;;;;5102208;28;20047;-83
2021/08/24 09:19:17;;;;;;;0.00;0.00;;;17.40;99.90;;;;;;5108109;28;20538;-81
2021/08/24 09:22:05;;;;;;;0.00;0.00;;;17.20;99.90;;;;;;5109256;27;20076;-84
2021/08/24 09:24:53;;;;;;;0.00;0.00;;;17.10;99.90;;;;;;5112087;27;20050;-84
2021/08/24 09:27:49;;;;;;;0.00;0.00;;;17.10;99.90;;;;;;5095709;28;20039;-82
2021/08/24 09:30:43;;;;;;;0.00;0.00;;;17.10;99.90;;;;;;5110069;28;20047;-83
2021/08/24 09:33:31;;;;;;;0.00;0.00;;;17.20;99.90;;;;;;5111277;28;20054;-84
2021/08/24 09:36:19;;;;;;;0.00;0.00;;;17.30;99.90;;;;;;5105397;28;20121;-82
2021/08/24 09:39:07;;;;;;;0.00;0.00;;;17.40;99.90;;;;;;5110900;28;20127;-83
2021/08/24 09:42:06;;;;;;;0.00;0.00;;;17.40;99.90;;;;;;5099721;28;20056;-83
2021/08/24 09:44:54;;;;;;;0.00;0.00;;;17.30;99.90;;;;;;5115242;27;20040;-83
2021/08/24 09:47:42;;;;;;;0.00;0.00;;;17.30;99.90;;;;;;5109231;28;20047;-82
2021/08/24 09:50:32;;;;;;;0.00;0.00;;;17.20;99.90;;;;;;5110882;27;20052;-84
2021/08/24 09:53:37;;;;;;;0.00;0.00;;;17.20;99.90;;;;;;5098476;28;20491;-84
2021/08/24 09:56:31;;;;;;;0.00;0.00;;;17.30;99.90;;;;;;5106473;28;20051;-84
2021/08/24 09:59:25;;;;;;;0.00;0.00;;;17.50;99.90;;;;;;5102809;28;20045;-83
2021/08/24 10:02:32;;;;;;;0.00;0.00;;;17.70;99.90;;;;;;5099894;28;20042;-84
2021/08/24 10:05:35;;;;;;;0.00;0.00;;;17.80;99.90;;;;;;5107054;28;20050;-81
2021/08/24 10:08:32;;;;;;;0.00;0.00;;;17.80;99.90;;;;;;5112320;28;20043;-80
2021/08/24 10:11:26;;;;;;;0.00;0.00;;;17.80;99.90;;;;;;5115718;28;20121;-83
2021/08/24 10:14:20;;;;;;;0.00;0.00;;;18.20;99.90;;;;;;5113224;28;20445;-84
2021/08/24 10:17:12;;;;;;;0.00;0.00;;;18.60;99.90;;;;;;5108178;28;20124;-83
2021/08/24 10:20:02;;;;;;;0.00;0.00;;;19.00;99.30;;;;;;5124274;22;20262;-86
2021/08/24 10:22:52;;;;;;;0.00;0.00;;;19.10;99.90;;;;;;5099934;28;20055;-87
2021/08/24 10:25:47;;;;;;;0.00;0.00;;;19.50;99.50;;;;;;5097009;28;20097;-86
2021/08/24 10:28:38;;;;;;;0.00;0.00;;;19.80;99.20;;;;;;5101789;28;20047;-87
2021/08/24 10:31:33;;;;;;;0.00;0.00;;;19.90;98.80;;;;;;5098231;28;20044;-88
2021/08/24 10:34:32;;;;;;;0.00;0.00;;;20.10;99.10;;;;;;5114260;28;20044;-87
2021/08/24 10:37:40;;;;;;;0.00;0.00;;;20.20;97.70;;;;;;5087438;28;20044;-86
2021/08/24 10:40:30;;;;;;;0.00;0.00;;;19.60;98.70;;;;;;5098504;28;20104;-88
2021/08/24 10:43:22;;;;;;;0.00;0.00;;;19.90;97.80;;;;;;5091661;28;20131;-87
2021/08/24 10:46:16;;;;;;;0.00;0.00;;;19.70;98.50;;;;;;5095679;28;20051;-86
2021/08/24 10:49:03;;;;;;;0.00;0.00;;;19.60;98.50;;;;;;5104783;28;20051;-85
2021/08/24 10:52:02;;;;;;;0.00;0.00;;;19.50;97.00;;;;;;5090565;28;20107;-85
2021/08/24 10:55:05;;;;;;;0.00;0.00;;;19.40;97.20;;;;;;5092233;28;20037;-86
2021/08/24 10:58:05;;;;;;;0.00;0.00;;;19.00;96.70;;;;;;5084859;28;20775;-86
2021/08/24 11:00:59;;;;;;;0.00;0.00;;;18.90;97.30;;;;;;5100288;28;20067;-86
2021/08/24 11:04:07;;;;;;;0.00;0.00;;;19.10;97.10;;;;;;5099316;28;20040;-86
2021/08/24 11:07:05;;;;;;;0.00;0.00;;;19.10;95.60;;;;;;5086916;28;20040;-87
2021/08/24 11:09:57;;;;;;;0.00;0.00;;;19.20;95.90;;;;;;5104261;28;20462;-87
2021/08/24 11:12:58;;;;;;;0.00;0.00;;;19.50;95.70;;;;;;5105989;28;20048;-88
2021/08/24 11:15:53;;;;;;;0.00;0.00;;;19.60;96.60;;;;;;5102453;28;20047;-86
2021/08/24 11:18:47;;;;;;;0.00;0.00;;;19.70;97.40;;;;;;5098631;28;20040;-87
2021/08/24 11:21:41;;;;;;;0.00;0.00;;;19.80;97.60;;;;;;5086279;28;20050;-87
2021/08/24 11:24:47;;;;;;;0.00;0.00;;;20.00;96.60;;;;;;5093076;28;20047;-87
2021/08/24 11:27:44;;;;;;;0.00;0.00;;;19.70;96.50;;;;;;5100333;28;20055;-87
2021/08/24 11:30:38;;;;;;;0.00;0.00;;;19.50;96.60;;;;;;5086558;28;20047;-87
2021/08/24 11:33:32;;;;;;;0.00;0.00;;;19.60;96.80;;;;;;5092056;28;20071;-86
2021/08/24 11:36:28;;;;;;;0.00;0.00;;;19.80;96.10;;;;;;5084770;28;20055;-85
2021/08/24 11:39:18;;;;;;;0.00;0.00;;;19.50;96.00;;;;;;5076448;28;20055;-86
2021/08/24 11:42:07;;;;;;;0.00;0.00;;;19.40;95.60;;;;;;5100874;28;20048;-86
2021/08/24 11:44:57;;;;;;;0.00;0.00;;;19.50;95.20;;;;;;5093204;28;20047;-87
2021/08/24 11:47:50;;;;;;;0.00;0.00;;;19.50;95.20;;;;;;5092802;28;20068;-87
2021/08/24 11:50:45;;;;;;;0.00;0.00;;;19.80;94.80;;;;;;5084493;28;20036;-87
2021/08/24 11:53:39;;;;;;;0.00;0.00;;;19.90;95.00;;;;;;5097640;28;20463;-87
2021/08/24 11:56:38;;;;;;;0.00;0.00;;;21.60;95.20;;;;;;5089648;28;20057;-88
2021/08/24 11:59:29;;;;;;;0.00;0.00;;;20.30;93.30;;;;;;5101198;28;20040;-87
2021/08/24 12:02:20;;;;;;;0.00;0.00;;;20.50;93.00;;;;;;5081010;28;20497;-86
2021/08/24 12:05:16;;;;;;;0.00;0.00;;;20.20;93.20;;;;;;5102426;28;20048;-86
2021/08/24 12:08:09;;;;;;;0.00;0.00;;;20.00;94.20;;;;;;5095873;28;20058;-90
2021/08/24 12:11:02;;;;;;;0.00;0.00;;;19.90;94.80;;;;;;5092371;28;20103;-86
2021/08/24 12:13:52;;;;;;;0.00;0.00;;;20.10;94.70;;;;;;5094492;28;20474;-86
2021/08/24 12:16:39;;;;;;;;;;;20.10;94.80;;;;;;5084007;28;20052;-86
2021/08/24 12:19:26;;;;;;;0.00;0.00;;;20.10;94.30;;;;;;5097591;28;20066;-87
2021/08/24 12:22:29;;;;;;;0.00;0.00;;;20.10;94.20;;;;;;5094280;28;20054;-86
2021/08/24 12:25:31;;;;;;;0.00;0.00;;;20.00;93.80;;;;;;5096720;28;20089;-87
2021/08/24 12:28:37;;;;;;;0.00;0.00;;;20.10;93.70;;;;;;5092911;28;20040;-86
2021/08/24 12:31:43;;;;;;;0.00;0.00;;;19.90;94.70;;;;;;5082878;28;20102;-84
2021/08/24 12:34:48;;;;;;;0.00;0.00;;;19.80;93.80;;;;;;5077763;28;20421;-84
2021/08/24 12:37:52;;;;;;;0.00;0.00;;;19.90;94.70;;;;;;5083111;28;20139;-89
2021/08/24 12:40:59;;;;;;;0.00;0.00;;;19.80;94.70;;;;;;5078175;28;20126;-87
2021/08/24 12:43:50;;;;;;;0.00;0.00;;;20.00;94.10;;;;;;5092149;28;21939;-87
2021/08/24 12:46:38;;;;;;;0.00;0.00;;;19.90;93.80;;;;;;5080770;28;20123;-86
2021/08/24 12:49:34;;;;;;;0.00;0.00;;;20.10;93.50;;;;;;5088781;28;20059;-87
2021/08/24 12:52:32;;;;;;;0.00;0.00;;;20.20;93.50;;;;;;5083725;28;20048;-87
2021/08/24 12:55:38;;;;;;;0.00;0.00;;;20.40;93.90;;;;;;5092688;28;20092;-87
2021/08/24 12:58:28;;;;;;;0.00;0.00;;;20.70;93.50;;;;;;5084823;28;20127;-87
2021/08/24 13:01:25;;;;;;;0.00;0.00;;;20.90;93.00;;;;;;5099589;28;20051;-88
2021/08/24 13:04:21;;;;;;;0.00;0.00;;;21.20;92.50;;;;;;5095995;28;20040;-88
2021/08/24 13:07:15;;;;;;;0.00;0.00;;;21.30;93.80;;;;;;5098130;28;20077;-88
2021/08/24 13:10:15;;;;;;;0.00;0.00;;;21.40;93.10;;;;;;5088730;28;20097;-90
2021/08/24 13:13:04;;;;;;;0.00;0.00;;;21.50;92.70;;;;;;5097956;28;20544;-86
2021/08/24 13:15:58;;;;;;;0.00;0.00;;;21.10;92.10;;;;;;5099534;28;20103;-88
2021/08/24 13:18:48;;;;;;;0.00;0.00;;;20.60;92.40;;;;;;5097936;28;20124;-87
2021/08/24 13:21:49;;;;;;;0.00;0.00;;;20.40;93.10;;;;;;5086013;28;20419;-87
2021/08/24 13:24:39;;;;;;;0.00;0.00;;;20.20;93.10;;;;;;5095315;28;20050;-89
2021/08/24 13:27:30;;;;;;;0.00;0.00;;;20.30;92.90;;;;;;5078845;28;20040;-88
2021/08/24 13:30:23;;;;;;;0.00;0.00;;;20.00;93.10;;;;;;5079338;28;20056;-85
2021/08/24 13:33:17;;;;;;;0.00;0.00;;;19.90;93.20;;;;;;5093783;28;20101;-86
2021/08/24 13:36:09;;;;;;;0.00;0.00;;;19.80;92.90;;;;;;5092547;28;20051;-88
2021/08/24 13:39:01;;;;;;;0.00;0.00;;;19.80;93.90;;;;;;5087762;28;20097;-89
2021/08/24 13:41:52;;;;;;;0.00;0.00;;;20.10;93.40;;;;;;5096100;28;20676;-88
2021/08/24 13:44:41;;;;;;;0.00;0.00;;;20.50;92.00;;;;;;5093433;28;20451;-87
2021/08/24 13:47:28;;;;;;;0.00;0.00;;;20.70;91.60;;;;;;5081879;28;20040;-89
2021/08/24 13:50:27;;;;;;;0.00;0.00;;;20.90;92.30;;;;;;5075669;28;20052;-89
2021/08/24 13:53:17;;;;;;;0.00;0.00;;;21.30;92.50;;;;;;5099693;28;20051;-87
2021/08/24 13:56:05;;;;;;;;;;;21.60;90.70;;;;;;5088308;28;20103;-88
2021/08/24 13:58:52;;;;;;;0.00;0.00;;;21.50;90.00;;;;;;5089563;28;20426;-88
2021/08/24 14:01:44;;;;;;;0.00;0.00;;;21.30;90.70;;;;;;5090530;28;20044;-88
2021/08/24 14:04:39;;;;;;;0.00;0.00;;;21.10;90.90;;;;;;5073128;28;20054;-88
2021/08/24 14:07:30;;;;;;;0.00;0.00;;;21.30;90.70;;;;;;5074412;28;20047;-89
2021/08/24 14:10:21;;;;;;;0.00;0.00;;;21.20;90.20;;;;;;5078570;28;20578;-88
2021/08/24 14:13:18;;;;;;;0.00;0.00;;;20.90;90.90;;;;;;5097558;28;20108;-87
2021/08/24 14:16:05;;;;;;;0.00;0.00;;;21.10;91.10;;;;;;5074315;28;20491;-88
2021/08/24 14:18:53;;;;;;;0.00;0.00;;;21.30;90.70;;;;;;5089120;28;20047;-88
2021/08/24 14:21:41;;;;;;;0.00;0.00;;;21.30;90.90;;;;;;5073505;28;20054;-89
2021/08/24 14:24:31;;;;;;;0.00;0.00;;;21.40;91.10;;;;;;5079693;28;20149;-88
2021/08/24 14:27:19;;;;;;;0.00;0.00;;;21.30;90.70;;;;;;5097702;28;20039;-88
2021/08/24 14:30:08;;;;;;;0.00;0.00;;;20.90;91.10;;;;;;5093150;28;20447;-89
2021/08/24 14:32:55;;;;;;;0.00;0.00;;;20.80;91.40;;;;;;5073821;28;20180;-88
2021/08/24 14:35:47;;;;;;;0.00;0.00;;;20.90;91.10;;;;;;5078874;28;20398;-88
2021/08/24 14:38:39;;;;;;;0.00;0.00;;;21.30;91.20;;;;;;5081720;28;20056;-86
2021/08/24 14:41:31;;;;;;;0.00;0.00;;;22.10;90.60;;;;;;5078322;28;20079;-87
2021/08/24 14:44:25;;;;;;;0.00;0.00;;;22.50;89.60;;;;;;5093622;28;20036;-85
2021/08/24 14:47:26;;;;;;;0.00;0.00;;;21.90;90.20;;;;;;5072773;28;20081;-87
